sensor_id;sensor_type;location;lat;lon;timestamp;pressure;altitude;pressure_sealevel;temperature;humidity
72118;BME280;59992;47.490;8.736;2023-03-26T00:00:48;96279.86;;;7.23;81.22
72118;BME280;59992;47.490;8.736;2023-03-26T00:03:36;96280.23;;;7.27;80.38
72118;BME280;59992;47.490;8.736;2023-03-26T00:06:26;96275.00;;;7.33;80.80
72118;BME280;59992;47.490;8.736;2023-03-26T00:09:16;96266.95;;;7.37;80.45
72118;BME280;59992;47.490;8.736;2023-03-26T00:12:05;96264.25;;;7.41;80.38
72118;BME280;59992;47.490;8.736;2023-03-26T00:14:53;96264.85;;;7.45;79.84
72118;BME280;59992;47.490;8.736;2023-03-26T00:17:41;96258.84;;;7.46;79.99
72118;BME280;59992;47.490;8.736;2023-03-26T00:20:33;96253.38;;;7.48;80.33
72118;BME280;59992;47.490;8.736;2023-03-26T00:23:21;96252.51;;;7.50;80.68
72118;BME280;59992;47.490;8.736;2023-03-26T00:26:09;96254.66;;;7.48;81.47
72118;BME280;59992;47.490;8.736;2023-03-26T00:28:58;96254.10;;;7.43;81.18
72118;BME280;59992;47.490;8.736;2023-03-26T00:31:47;96252.48;;;7.41;80.66
72118;BME280;59992;47.490;8.736;2023-03-26T00:34:35;96247.55;;;7.43;80.61
72118;BME280;59992;47.490;8.736;2023-03-26T00:37:23;96245.05;;;7.46;79.16
72118;BME280;59992;47.490;8.736;2023-03-26T00:40:13;96250.95;;;7.51;80.56
72118;BME280;59992;47.490;8.736;2023-03-26T00:43:01;96246.92;;;7.53;81.30
72118;BME280;59992;47.490;8.736;2023-03-26T00:45:56;96240.80;;;7.52;78.45
72118;BME280;59992;47.490;8.736;2023-03-26T00:48:45;96238.80;;;7.54;78.80
72118;BME280;59992;47.490;8.736;2023-03-26T00:51:33;96240.43;;;7.59;79.38
72118;BME280;59992;47.490;8.736;2023-03-26T00:54:21;96235.30;;;7.63;77.88
72118;BME280;59992;47.490;8.736;2023-03-26T00:57:10;96234.89;;;7.66;78.61
72118;BME280;59992;47.490;8.736;2023-03-26T00:59:59;96237.13;;;7.68;78.55
72118;BME280;59992;47.490;8.736;2023-03-26T01:02:59;96231.91;;;7.68;78.96
72118;BME280;59992;47.490;8.736;2023-03-26T01:05:50;96227.29;;;7.63;80.08
72118;BME280;59992;47.490;8.736;2023-03-26T01:08:41;96223.04;;;7.61;80.00
72118;BME280;59992;47.490;8.736;2023-03-26T01:11:33;96219.63;;;7.56;79.57
72118;BME280;59992;47.490;8.736;2023-03-26T01:14:23;96217.34;;;7.58;78.33
72118;BME280;59992;47.490;8.736;2023-03-26T01:17:11;96218.25;;;7.59;80.68
72118;BME280;59992;47.490;8.736;2023-03-26T01:20:08;96218.48;;;7.59;81.04
72118;BME280;59992;47.490;8.736;2023-03-26T01:23:02;96212.65;;;7.58;81.03
72118;BME280;59992;47.490;8.736;2023-03-26T01:25:57;96201.14;;;7.54;81.27
72118;BME280;59992;47.490;8.736;2023-03-26T01:28:50;96198.73;;;7.55;81.03
72118;BME280;59992;47.490;8.736;2023-03-26T01:31:49;96194.63;;;7.53;82.50
72118;BME280;59992;47.490;8.736;2023-03-26T01:34:49;96192.04;;;7.51;82.21
72118;BME280;59992;47.490;8.736;2023-03-26T01:37:49;96182.25;;;7.48;82.86
72118;BME280;59992;47.490;8.736;2023-03-26T01:40:47;96176.44;;;7.43;83.55
72118;BME280;59992;47.490;8.736;2023-03-26T01:43:44;96170.50;;;7.39;83.72
72118;BME280;59992;47.490;8.736;2023-03-26T01:46:34;96161.92;;;7.32;84.43
72118;BME280;59992;47.490;8.736;2023-03-26T01:49:22;96154.73;;;7.26;84.44
72118;BME280;59992;47.490;8.736;2023-03-26T01:52:19;96147.15;;;7.20;85.04
72118;BME280;59992;47.490;8.736;2023-03-26T01:55:08;96143.98;;;7.14;84.96
72118;BME280;59992;47.490;8.736;2023-03-26T01:58:05;96137.64;;;7.11;86.00
72118;BME280;59992;47.490;8.736;2023-03-26T02:01:02;96138.20;;;7.08;85.51
72118;BME280;59992;47.490;8.736;2023-03-26T02:03:58;96130.61;;;7.06;85.66
72118;BME280;59992;47.490;8.736;2023-03-26T02:06:52;96122.05;;;7.02;85.29
72118;BME280;59992;47.490;8.736;2023-03-26T02:09:42;96113.75;;;6.97;85.88
72118;BME280;59992;47.490;8.736;2023-03-26T02:12:37;96111.83;;;7.00;85.91
72118;BME280;59992;47.490;8.736;2023-03-26T02:15:25;96104.13;;;6.98;86.18
72118;BME280;59992;47.490;8.736;2023-03-26T02:18:14;96090.02;;;6.97;86.05
72118;BME280;59992;47.490;8.736;2023-03-26T02:21:03;96083.96;;;6.95;86.43
72118;BME280;59992;47.490;8.736;2023-03-26T02:23:53;96083.02;;;6.93;86.92
72118;BME280;59992;47.490;8.736;2023-03-26T02:26:44;96072.77;;;6.89;87.12
72118;BME280;59992;47.490;8.736;2023-03-26T02:29:33;96061.80;;;6.82;87.25
72118;BME280;59992;47.490;8.736;2023-03-26T02:32:24;96080.83;;;6.85;87.31
72118;BME280;59992;47.490;8.736;2023-03-26T02:35:12;96065.22;;;6.84;85.49
72118;BME280;59992;47.490;8.736;2023-03-26T02:38:01;96053.35;;;6.84;86.20
72118;BME280;59992;47.490;8.736;2023-03-26T02:40:49;96043.65;;;6.85;86.51
72118;BME280;59992;47.490;8.736;2023-03-26T02:43:37;96034.98;;;6.84;86.71
72118;BME280;59992;47.490;8.736;2023-03-26T02:46:25;96033.88;;;6.86;86.93
72118;BME280;59992;47.490;8.736;2023-03-26T02:49:13;96025.23;;;6.86;85.86
72118;BME280;59992;47.490;8.736;2023-03-26T02:52:02;96016.90;;;6.88;84.94
72118;BME280;59992;47.490;8.736;2023-03-26T02:54:53;96014.02;;;6.87;86.00
72118;BME280;59992;47.490;8.736;2023-03-26T02:57:41;96012.57;;;6.89;87.09
72118;BME280;59992;47.490;8.736;2023-03-26T03:00:29;96006.19;;;6.90;87.41
72118;BME280;59992;47.490;8.736;2023-03-26T03:03:18;96000.12;;;6.91;88.35
72118;BME280;59992;47.490;8.736;2023-03-26T03:06:06;95989.27;;;6.90;88.48
72118;BME280;59992;47.490;8.736;2023-03-26T03:08:55;95978.31;;;6.89;87.95
72118;BME280;59992;47.490;8.736;2023-03-26T03:11:43;95979.31;;;6.86;89.13
72118;BME280;59992;47.490;8.736;2023-03-26T03:14:31;95977.38;;;6.87;89.73
72118;BME280;59992;47.490;8.736;2023-03-26T03:17:20;95964.83;;;6.89;88.85
72118;BME280;59992;47.490;8.736;2023-03-26T03:20:08;95968.90;;;6.89;87.96
72118;BME280;59992;47.490;8.736;2023-03-26T03:22:57;95968.83;;;6.84;89.17
72118;BME280;59992;47.490;8.736;2023-03-26T03:25:45;95975.59;;;6.92;89.21
72118;BME280;59992;47.490;8.736;2023-03-26T03:28:34;95972.61;;;6.94;89.12
72118;BME280;59992;47.490;8.736;2023-03-26T03:31:23;95977.55;;;6.97;89.67
72118;BME280;59992;47.490;8.736;2023-03-26T03:34:12;95981.38;;;6.96;91.27
72118;BME280;59992;47.490;8.736;2023-03-26T03:37:00;95980.52;;;6.99;91.55
72118;BME280;59992;47.490;8.736;2023-03-26T03:39:48;95979.13;;;7.01;90.23
72118;BME280;59992;47.490;8.736;2023-03-26T03:42:36;95966.20;;;7.02;89.30
72118;BME280;59992;47.490;8.736;2023-03-26T03:45:24;95966.67;;;6.99;91.00
72118;BME280;59992;47.490;8.736;2023-03-26T03:48:12;95957.95;;;6.99;90.25
72118;BME280;59992;47.490;8.736;2023-03-26T03:51:01;95951.58;;;6.98;88.81
72118;BME280;59992;47.490;8.736;2023-03-26T03:53:49;95945.08;;;6.95;88.31
72118;BME280;59992;47.490;8.736;2023-03-26T03:56:38;95940.73;;;6.92;88.59
72118;BME280;59992;47.490;8.736;2023-03-26T03:59:25;95943.56;;;6.90;90.69
72118;BME280;59992;47.490;8.736;2023-03-26T04:02:14;95939.78;;;6.89;91.25
72118;BME280;59992;47.490;8.736;2023-03-26T04:05:08;95931.08;;;6.86;93.37
72118;BME280;59992;47.490;8.736;2023-03-26T04:07:58;95930.92;;;6.86;93.61
72118;BME280;59992;47.490;8.736;2023-03-26T04:10:47;95932.42;;;6.85;94.15
72118;BME280;59992;47.490;8.736;2023-03-26T04:13:35;95933.02;;;6.86;93.99
72118;BME280;59992;47.490;8.736;2023-03-26T04:16:23;95926.48;;;6.86;94.10
72118;BME280;59992;47.490;8.736;2023-03-26T04:19:11;95913.20;;;6.84;93.31
72118;BME280;59992;47.490;8.736;2023-03-26T04:22:01;95911.36;;;6.82;93.06
72118;BME280;59992;47.490;8.736;2023-03-26T04:24:49;95906.84;;;6.81;94.08
72118;BME280;59992;47.490;8.736;2023-03-26T04:27:41;95901.09;;;6.80;93.69
72118;BME280;59992;47.490;8.736;2023-03-26T04:30:30;95891.38;;;6.80;92.94
72118;BME280;59992;47.490;8.736;2023-03-26T04:33:19;95885.08;;;6.80;92.47
72118;BME280;59992;47.490;8.736;2023-03-26T04:36:10;95878.34;;;6.79;93.74
72118;BME280;59992;47.490;8.736;2023-03-26T04:38:59;95870.65;;;6.72;94.53
72118;BME280;59992;47.490;8.736;2023-03-26T04:41:50;95876.89;;;6.78;94.63
72118;BME280;59992;47.490;8.736;2023-03-26T04:44:39;95876.77;;;6.79;94.88
72118;BME280;59992;47.490;8.736;2023-03-26T04:47:28;95874.52;;;6.79;95.15
72118;BME280;59992;47.490;8.736;2023-03-26T04:50:17;95875.03;;;6.79;95.05
72118;BME280;59992;47.490;8.736;2023-03-26T04:53:05;95867.81;;;6.79;95.39
72118;BME280;59992;47.490;8.736;2023-03-26T04:55:56;95862.98;;;6.78;95.16
72118;BME280;59992;47.490;8.736;2023-03-26T04:58:49;95855.61;;;6.78;95.28
72118;BME280;59992;47.490;8.736;2023-03-26T05:01:38;95856.21;;;6.78;95.41
72118;BME280;59992;47.490;8.736;2023-03-26T05:04:27;95855.00;;;6.78;95.04
72118;BME280;59992;47.490;8.736;2023-03-26T05:07:17;95841.77;;;6.77;94.88
72118;BME280;59992;47.490;8.736;2023-03-26T05:10:07;95831.59;;;6.77;94.76
72118;BME280;59992;47.490;8.736;2023-03-26T05:12:56;95826.68;;;6.77;94.25
72118;BME280;59992;47.490;8.736;2023-03-26T05:15:44;95822.91;;;6.76;94.40
72118;BME280;59992;47.490;8.736;2023-03-26T05:18:32;95820.02;;;6.74;94.20
72118;BME280;59992;47.490;8.736;2023-03-26T05:21:21;95818.63;;;6.72;95.08
72118;BME280;59992;47.490;8.736;2023-03-26T05:24:09;95808.47;;;6.72;95.53
72118;BME280;59992;47.490;8.736;2023-03-26T05:26:57;95806.40;;;6.73;95.17
72118;BME280;59992;47.490;8.736;2023-03-26T05:29:45;95801.16;;;6.72;94.90
72118;BME280;59992;47.490;8.736;2023-03-26T05:32:33;95795.88;;;6.69;94.98
72118;BME280;59992;47.490;8.736;2023-03-26T05:35:22;95791.73;;;6.69;95.46
72118;BME280;59992;47.490;8.736;2023-03-26T05:38:10;95787.46;;;6.71;95.65
72118;BME280;59992;47.490;8.736;2023-03-26T05:40:59;95777.88;;;6.73;94.48
72118;BME280;59992;47.490;8.736;2023-03-26T05:43:48;95780.48;;;6.71;94.92
72118;BME280;59992;47.490;8.736;2023-03-26T05:46:36;95782.39;;;6.69;94.74
72118;BME280;59992;47.490;8.736;2023-03-26T05:49:24;95791.88;;;6.69;95.43
72118;BME280;59992;47.490;8.736;2023-03-26T05:52:13;95790.41;;;6.71;94.98
72118;BME280;59992;47.490;8.736;2023-03-26T05:55:06;95789.66;;;6.71;94.56
72118;BME280;59992;47.490;8.736;2023-03-26T05:57:55;95789.58;;;6.72;94.96
72118;BME280;59992;47.490;8.736;2023-03-26T06:00:43;95788.98;;;6.72;94.49
72118;BME280;59992;47.490;8.736;2023-03-26T06:03:36;95789.92;;;6.74;95.19
72118;BME280;59992;47.490;8.736;2023-03-26T06:06:25;95788.14;;;6.75;95.16
72118;BME280;59992;47.490;8.736;2023-03-26T06:09:14;95789.65;;;6.76;96.35
72118;BME280;59992;47.490;8.736;2023-03-26T06:12:03;95782.08;;;6.78;96.16
72118;BME280;59992;47.490;8.736;2023-03-26T06:14:53;95775.57;;;6.80;96.03
72118;BME280;59992;47.490;8.736;2023-03-26T06:17:40;95761.30;;;6.81;95.10
72118;BME280;59992;47.490;8.736;2023-03-26T06:20:28;95747.51;;;6.81;94.32
72118;BME280;59992;47.490;8.736;2023-03-26T06:23:16;95724.94;;;6.81;94.51
72118;BME280;59992;47.490;8.736;2023-03-26T06:26:05;95703.87;;;6.81;93.83
72118;BME280;59992;47.490;8.736;2023-03-26T06:28:53;95695.70;;;6.79;93.92
72118;BME280;59992;47.490;8.736;2023-03-26T06:31:41;95698.25;;;6.79;96.37
72118;BME280;59992;47.490;8.736;2023-03-26T06:34:29;95703.95;;;6.82;97.14
72118;BME280;59992;47.490;8.736;2023-03-26T06:37:18;95709.65;;;6.86;98.10
72118;BME280;59992;47.490;8.736;2023-03-26T06:40:08;95721.92;;;6.87;97.77
72118;BME280;59992;47.490;8.736;2023-03-26T06:42:56;95722.56;;;6.89;97.29
72118;BME280;59992;47.490;8.736;2023-03-26T06:45:45;95727.33;;;6.91;97.09
72118;BME280;59992;47.490;8.736;2023-03-26T06:48:37;95726.67;;;6.93;97.21
72118;BME280;59992;47.490;8.736;2023-03-26T06:51:25;95728.90;;;6.95;96.80
72118;BME280;59992;47.490;8.736;2023-03-26T06:54:13;95736.04;;;6.96;95.74
72118;BME280;59992;47.490;8.736;2023-03-26T06:57:01;95742.14;;;6.96;95.53
72118;BME280;59992;47.490;8.736;2023-03-26T06:59:50;95753.90;;;6.97;95.22
72118;BME280;59992;47.490;8.736;2023-03-26T07:02:38;95749.14;;;6.95;94.12
72118;BME280;59992;47.490;8.736;2023-03-26T07:05:27;95731.52;;;6.90;93.77
72118;BME280;59992;47.490;8.736;2023-03-26T07:08:15;95713.11;;;6.81;92.15
72118;BME280;59992;47.490;8.736;2023-03-26T07:11:04;95718.25;;;6.77;91.82
72118;BME280;59992;47.490;8.736;2023-03-26T07:13:52;95707.09;;;6.70;92.14
72118;BME280;59992;47.490;8.736;2023-03-26T07:16:43;95700.63;;;6.64;92.85
72118;BME280;59992;47.490;8.736;2023-03-26T07:19:31;95697.27;;;6.61;92.56
72118;BME280;59992;47.490;8.736;2023-03-26T07:22:21;95691.52;;;6.59;92.42
72118;BME280;59992;47.490;8.736;2023-03-26T07:25:13;95696.79;;;6.54;92.34
72118;BME280;59992;47.490;8.736;2023-03-26T07:28:09;95711.84;;;6.60;91.48
72118;BME280;59992;47.490;8.736;2023-03-26T07:31:09;95701.05;;;6.62;91.89
72118;BME280;59992;47.490;8.736;2023-03-26T07:34:04;95695.19;;;6.63;93.04
72118;BME280;59992;47.490;8.736;2023-03-26T07:36:58;95700.02;;;6.63;92.82
72118;BME280;59992;47.490;8.736;2023-03-26T07:39:53;95686.55;;;6.64;92.07
72118;BME280;59992;47.490;8.736;2023-03-26T07:42:53;95684.60;;;6.65;92.16
72118;BME280;59992;47.490;8.736;2023-03-26T07:45:44;95670.69;;;6.66;91.47
72118;BME280;59992;47.490;8.736;2023-03-26T07:48:39;95670.11;;;6.67;90.82
72118;BME280;59992;47.490;8.736;2023-03-26T07:51:29;95676.98;;;6.69;90.67
72118;BME280;59992;47.490;8.736;2023-03-26T07:54:18;95670.83;;;6.70;91.18
72118;BME280;59992;47.490;8.736;2023-03-26T07:57:12;95663.70;;;6.71;92.01
72118;BME280;59992;47.490;8.736;2023-03-26T08:00:09;95655.95;;;6.71;91.92
72118;BME280;59992;47.490;8.736;2023-03-26T08:03:18;95649.86;;;6.71;92.45
72118;BME280;59992;47.490;8.736;2023-03-26T08:06:13;95643.56;;;6.74;91.54
72118;BME280;59992;47.490;8.736;2023-03-26T08:09:10;95644.86;;;6.75;91.18
72118;BME280;59992;47.490;8.736;2023-03-26T08:12:07;95639.45;;;6.76;91.17
72118;BME280;59992;47.490;8.736;2023-03-26T08:15:04;95641.09;;;6.79;90.92
72118;BME280;59992;47.490;8.736;2023-03-26T08:18:03;95634.96;;;6.83;90.92
72118;BME280;59992;47.490;8.736;2023-03-26T08:21:07;95630.28;;;6.88;90.60
72118;BME280;59992;47.490;8.736;2023-03-26T08:24:03;95630.27;;;6.93;90.40
72118;BME280;59992;47.490;8.736;2023-03-26T08:27:00;95624.52;;;6.97;89.60
72118;BME280;59992;47.490;8.736;2023-03-26T08:29:56;95628.90;;;7.06;89.13
72118;BME280;59992;47.490;8.736;2023-03-26T08:32:53;95637.27;;;7.19;89.40
72118;BME280;59992;47.490;8.736;2023-03-26T08:35:42;95633.37;;;7.28;89.52
72118;BME280;59992;47.490;8.736;2023-03-26T08:38:30;95633.94;;;7.33;89.16
72118;BME280;59992;47.490;8.736;2023-03-26T08:41:51;95628.65;;;7.39;88.82
72118;BME280;59992;47.490;8.736;2023-03-26T08:48:22;95611.45;;;7.36;87.41
72118;BME280;59992;47.490;8.736;2023-03-26T08:51:36;95618.27;;;7.33;88.01
72118;BME280;59992;47.490;8.736;2023-03-26T08:54:59;95620.89;;;7.30;88.03
72118;BME280;59992;47.490;8.736;2023-03-26T09:01:31;95627.46;;;7.33;87.14
72118;BME280;59992;47.490;8.736;2023-03-26T09:05:08;95629.23;;;7.45;88.39
72118;BME280;59992;47.490;8.736;2023-03-26T09:08:28;95628.45;;;7.58;88.38
72118;BME280;59992;47.490;8.736;2023-03-26T09:29:03;95650.05;;;7.69;86.57
72118;BME280;59992;47.490;8.736;2023-03-26T09:35:35;95628.11;;;7.69;87.36
72118;BME280;59992;47.490;8.736;2023-03-26T09:38:43;95653.56;;;8.03;88.25
72118;BME280;59992;47.490;8.736;2023-03-26T09:41:37;95659.21;;;8.38;89.56
72118;BME280;59992;47.490;8.736;2023-03-26T09:44:43;95673.70;;;8.61;87.62
72118;BME280;59992;47.490;8.736;2023-03-26T09:48:04;95682.78;;;8.67;85.50
72118;BME280;59992;47.490;8.736;2023-03-26T09:51:06;95694.32;;;8.75;86.73
72118;BME280;59992;47.490;8.736;2023-03-26T09:54:09;95699.09;;;8.69;85.96
72118;BME280;59992;47.490;8.736;2023-03-26T09:57:07;95699.31;;;8.77;85.77
72118;BME280;59992;47.490;8.736;2023-03-26T10:00:15;95695.55;;;8.69;84.75
72118;BME280;59992;47.490;8.736;2023-03-26T10:03:17;95687.62;;;8.69;85.29
72118;BME280;59992;47.490;8.736;2023-03-26T10:06:21;95680.31;;;8.70;84.96
72118;BME280;59992;47.490;8.736;2023-03-26T10:09:34;95682.85;;;8.76;85.69
72118;BME280;59992;47.490;8.736;2023-03-26T10:12:32;95679.20;;;8.86;84.97
72118;BME280;59992;47.490;8.736;2023-03-26T10:15:33;95674.13;;;8.98;85.45
72118;BME280;59992;47.490;8.736;2023-03-26T10:18:34;95667.59;;;9.07;85.91
72118;BME280;59992;47.490;8.736;2023-03-26T10:21:37;95671.54;;;9.32;86.06
72118;BME280;59992;47.490;8.736;2023-03-26T10:24:52;95679.80;;;9.34;83.07
72118;BME280;59992;47.490;8.736;2023-03-26T10:27:54;95685.02;;;9.41;81.78
72118;BME280;59992;47.490;8.736;2023-03-26T10:30:55;95692.87;;;9.61;81.18
72118;BME280;59992;47.490;8.736;2023-03-26T10:33:55;95690.85;;;9.76;81.47
72118;BME280;59992;47.490;8.736;2023-03-26T10:36:50;95674.29;;;9.73;80.41
72118;BME280;59992;47.490;8.736;2023-03-26T10:39:53;95674.45;;;9.85;80.22
72118;BME280;59992;47.490;8.736;2023-03-26T10:49:33;95663.08;;;10.11;80.45
72118;BME280;59992;47.490;8.736;2023-03-26T10:52:35;95661.57;;;10.17;79.01
72118;BME280;59992;47.490;8.736;2023-03-26T10:55:29;95661.86;;;10.20;79.95
72118;BME280;59992;47.490;8.736;2023-03-26T10:58:22;95661.87;;;10.20;79.23
72118;BME280;59992;47.490;8.736;2023-03-26T11:01:17;95657.10;;;10.15;78.66
72118;BME280;59992;47.490;8.736;2023-03-26T11:04:21;95652.80;;;10.19;78.43
72118;BME280;59992;47.490;8.736;2023-03-26T11:07:20;95648.77;;;10.33;78.77
72118;BME280;59992;47.490;8.736;2023-03-26T11:10:13;95643.38;;;10.47;78.15
72118;BME280;59992;47.490;8.736;2023-03-26T11:13:09;95627.10;;;10.48;77.07
72118;BME280;59992;47.490;8.736;2023-03-26T11:16:03;95641.58;;;10.77;77.04
72118;BME280;59992;47.490;8.736;2023-03-26T11:18:58;95647.13;;;10.95;76.60
72118;BME280;59992;47.490;8.736;2023-03-26T11:21:52;95650.14;;;10.98;76.58
72118;BME280;59992;47.490;8.736;2023-03-26T11:25:05;95656.16;;;11.10;75.93
72118;BME280;59992;47.490;8.736;2023-03-26T11:28:05;95648.70;;;11.20;75.10
72118;BME280;59992;47.490;8.736;2023-03-26T11:31:00;95648.98;;;11.40;75.05
72118;BME280;59992;47.490;8.736;2023-03-26T11:33:53;95631.48;;;11.51;73.18
72118;BME280;59992;47.490;8.736;2023-03-26T11:36:47;95630.41;;;11.69;73.50
72118;BME280;59992;47.490;8.736;2023-03-26T11:39:41;95628.27;;;11.94;71.99
72118;BME280;59992;47.490;8.736;2023-03-26T11:42:32;95619.55;;;12.03;70.67
72118;BME280;59992;47.490;8.736;2023-03-26T11:45:23;95625.73;;;12.16;70.07
72118;BME280;59992;47.490;8.736;2023-03-26T11:48:14;95618.66;;;12.19;68.80
72118;BME280;59992;47.490;8.736;2023-03-26T11:51:07;95610.30;;;12.29;68.74
72118;BME280;59992;47.490;8.736;2023-03-26T11:53:57;95605.95;;;12.39;68.48
72118;BME280;59992;47.490;8.736;2023-03-26T11:56:47;95593.19;;;12.31;60.89
72118;BME280;59992;47.490;8.736;2023-03-26T11:59:38;95592.11;;;12.33;54.91
72118;BME280;59992;47.490;8.736;2023-03-26T12:02:36;95577.54;;;12.17;55.33
72118;BME280;59992;47.490;8.736;2023-03-26T12:05:26;95587.63;;;12.33;57.46
72118;BME280;59992;47.490;8.736;2023-03-26T12:08:20;95579.17;;;12.43;59.12
72118;BME280;59992;47.490;8.736;2023-03-26T12:11:10;95579.79;;;12.49;59.09
72118;BME280;59992;47.490;8.736;2023-03-26T12:14:00;95569.42;;;12.60;60.15
72118;BME280;59992;47.490;8.736;2023-03-26T12:17:03;95562.61;;;12.65;60.98
72118;BME280;59992;47.490;8.736;2023-03-26T12:19:53;95563.32;;;12.76;61.97
72118;BME280;59992;47.490;8.736;2023-03-26T12:22:41;95563.86;;;12.95;62.49
72118;BME280;59992;47.490;8.736;2023-03-26T12:25:31;95558.40;;;12.94;59.68
72118;BME280;59992;47.490;8.736;2023-03-26T12:28:20;95548.17;;;12.92;60.81
72118;BME280;59992;47.490;8.736;2023-03-26T12:31:11;95550.35;;;12.93;60.83
72118;BME280;59992;47.490;8.736;2023-03-26T12:34:12;95531.91;;;12.65;57.55
72118;BME280;59992;47.490;8.736;2023-03-26T12:37:02;95523.85;;;12.60;59.01
72118;BME280;59992;47.490;8.736;2023-03-26T12:40:05;95522.65;;;12.45;59.27
72118;BME280;59992;47.490;8.736;2023-03-26T12:42:59;95526.33;;;12.22;59.82
72118;BME280;59992;47.490;8.736;2023-03-26T12:45:52;95519.02;;;11.93;59.13
72118;BME280;59992;47.490;8.736;2023-03-26T12:48:41;95521.33;;;11.80;58.39
72118;BME280;59992;47.490;8.736;2023-03-26T12:51:38;95532.23;;;11.75;59.48
72118;BME280;59992;47.490;8.736;2023-03-26T12:54:37;95542.46;;;11.74;60.03
72118;BME280;59992;47.490;8.736;2023-03-26T12:57:33;95541.27;;;11.71;62.02
72118;BME280;59992;47.490;8.736;2023-03-26T13:00:35;95534.21;;;11.81;61.78
72118;BME280;59992;47.490;8.736;2023-03-26T13:03:37;95519.42;;;12.06;61.69
72118;BME280;59992;47.490;8.736;2023-03-26T13:06:36;95511.45;;;12.15;60.98
72118;BME280;59992;47.490;8.736;2023-03-26T13:09:46;95511.44;;;12.36;61.18
72118;BME280;59992;47.490;8.736;2023-03-26T13:12:44;95503.68;;;12.63;59.97
72118;BME280;59992;47.490;8.736;2023-03-26T13:15:37;95495.46;;;12.88;59.75
72118;BME280;59992;47.490;8.736;2023-03-26T13:18:45;95491.45;;;13.11;58.44
72118;BME280;59992;47.490;8.736;2023-03-26T13:21:41;95487.59;;;13.16;59.64
72118;BME280;59992;47.490;8.736;2023-03-26T13:24:39;95487.67;;;13.25;59.86
72118;BME280;59992;47.490;8.736;2023-03-26T13:27:38;95480.69;;;13.24;58.49
72118;BME280;59992;47.490;8.736;2023-03-26T13:30:32;95482.67;;;13.14;57.67
72118;BME280;59992;47.490;8.736;2023-03-26T13:33:43;95471.27;;;13.02;58.18
72118;BME280;59992;47.490;8.736;2023-03-26T13:36:43;95468.79;;;12.77;61.64
72118;BME280;59992;47.490;8.736;2023-03-26T13:39:43;95452.45;;;12.48;61.75
72118;BME280;59992;47.490;8.736;2023-03-26T13:42:46;95449.59;;;12.06;62.54
72118;BME280;59992;47.490;8.736;2023-03-26T13:45:48;95437.77;;;11.98;63.82
72118;BME280;59992;47.490;8.736;2023-03-26T13:48:45;95430.67;;;11.95;64.91
72118;BME280;59992;47.490;8.736;2023-03-26T13:51:40;95420.11;;;11.96;64.23
72118;BME280;59992;47.490;8.736;2023-03-26T13:54:33;95415.52;;;11.95;65.80
72118;BME280;59992;47.490;8.736;2023-03-26T13:57:24;95404.84;;;11.82;66.90
72118;BME280;59992;47.490;8.736;2023-03-26T14:00:19;95406.50;;;11.70;66.85
72118;BME280;59992;47.490;8.736;2023-03-26T14:03:16;95410.18;;;11.65;66.79
72118;BME280;59992;47.490;8.736;2023-03-26T14:06:13;95411.36;;;11.61;68.61
72118;BME280;59992;47.490;8.736;2023-03-26T14:09:08;95410.18;;;11.65;67.61
72118;BME280;59992;47.490;8.736;2023-03-26T14:12:20;95408.36;;;11.66;66.34
72118;BME280;59992;47.490;8.736;2023-03-26T14:15:16;95417.84;;;11.56;69.80
72118;BME280;59992;47.490;8.736;2023-03-26T14:18:26;95410.19;;;11.37;70.93
72118;BME280;59992;47.490;8.736;2023-03-26T14:21:27;95415.55;;;11.24;70.88
72118;BME280;59992;47.490;8.736;2023-03-26T14:24:38;95425.29;;;10.97;72.62
72118;BME280;59992;47.490;8.736;2023-03-26T14:27:39;95432.98;;;10.82;71.00
72118;BME280;59992;47.490;8.736;2023-03-26T14:30:55;95450.30;;;10.71;71.44
72118;BME280;59992;47.490;8.736;2023-03-26T14:37:22;95466.27;;;10.24;70.62
72118;BME280;59992;47.490;8.736;2023-03-26T14:40:30;95487.27;;;9.94;70.94
72118;BME280;59992;47.490;8.736;2023-03-26T14:43:54;95525.48;;;9.85;71.32
72118;BME280;59992;47.490;8.736;2023-03-26T14:46:57;95565.77;;;9.42;73.93
72118;BME280;59992;47.490;8.736;2023-03-26T14:53:42;95599.48;;;8.10;81.92
72118;BME280;59992;47.490;8.736;2023-03-26T14:56:42;95619.29;;;7.77;83.84
72118;BME280;59992;47.490;8.736;2023-03-26T15:03:47;95632.10;;;7.30;84.43
72118;BME280;59992;47.490;8.736;2023-03-26T15:07:24;95605.91;;;7.11;85.19
72118;BME280;59992;47.490;8.736;2023-03-26T15:10:45;95618.75;;;7.00;87.14
72118;BME280;59992;47.490;8.736;2023-03-26T15:17:18;95621.54;;;6.94;86.67
72118;BME280;59992;47.490;8.736;2023-03-26T15:27:34;95632.13;;;7.06;86.88
72118;BME280;59992;47.490;8.736;2023-03-26T15:31:04;95631.73;;;7.09;85.53
72118;BME280;59992;47.490;8.736;2023-03-26T15:34:15;95647.45;;;7.23;86.73
72118;BME280;59992;47.490;8.736;2023-03-26T15:37:38;95648.30;;;7.16;85.89
72118;BME280;59992;47.490;8.736;2023-03-26T15:40:39;95625.71;;;7.11;86.95
72118;BME280;59992;47.490;8.736;2023-03-26T15:44:03;95641.73;;;7.29;87.92
72118;BME280;59992;47.490;8.736;2023-03-26T15:46:57;95632.52;;;7.33;85.19
72118;BME280;59992;47.490;8.736;2023-03-26T15:49:50;95625.77;;;7.37;85.14
72118;BME280;59992;47.490;8.736;2023-03-26T15:52:47;95618.52;;;7.35;84.92
72118;BME280;59992;47.490;8.736;2023-03-26T15:55:44;95631.80;;;7.45;84.18
72118;BME280;59992;47.490;8.736;2023-03-26T15:58:46;95642.80;;;7.53;85.11
72118;BME280;59992;47.490;8.736;2023-03-26T16:01:45;95657.68;;;7.57;86.13
72118;BME280;59992;47.490;8.736;2023-03-26T16:04:43;95658.92;;;7.53;85.30
72118;BME280;59992;47.490;8.736;2023-03-26T16:07:46;95657.91;;;7.56;84.55
72118;BME280;59992;47.490;8.736;2023-03-26T16:10:40;95663.85;;;7.56;84.98
72118;BME280;59992;47.490;8.736;2023-03-26T16:13:35;95725.06;;;7.52;85.94
72118;BME280;59992;47.490;8.736;2023-03-26T16:16:49;95769.32;;;6.85;83.04
72118;BME280;59992;47.490;8.736;2023-03-26T16:19:48;95763.79;;;6.48;82.47
72118;BME280;59992;47.490;8.736;2023-03-26T16:22:45;95767.15;;;6.01;83.52
72118;BME280;59992;47.490;8.736;2023-03-26T16:25:54;95775.70;;;5.57;84.60
72118;BME280;59992;47.490;8.736;2023-03-26T16:29:07;95773.91;;;5.46;85.23
72118;BME280;59992;47.490;8.736;2023-03-26T16:32:14;95785.20;;;5.18;86.73